Time;durP1;ratioP1;P1;durP2;ratioP2;P2;SDS_P1;SDS_P2;PMS_P1;PMS_P2;Temp;Humidity;BMP_temperature;BMP_pressure;BME280_temperature;BME280_humidity;BME280_pressure;Samples;Min_cycle;Max_cycle;Signal;HPM_P1;HPM_P2
2022/04/11 00:00:50;;;;;;;5.90;2.42;;;4.90;93.00;;;4.81;67.26;101439.59;4806469;29;20190;-70
2022/04/11 00:03:19;;;;;;;9.18;2.33;;;4.90;93.00;;;4.81;67.16;101440.44;4806363;29;20292;-70
2022/04/11 00:05:48;;;;;;;4.03;2.00;;;4.90;93.10;;;4.84;67.39;101436.63;4821487;29;20224;-71
2022/04/11 00:08:19;;;;;;;7.35;2.42;;;4.90;93.70;;;4.79;67.86;101437.03;4816011;29;20225;-71
2022/04/11 00:10:50;;;;;;;10.13;2.70;;;4.90;94.30;;;4.73;67.83;101439.50;4822162;29;20235;-72
2022/04/11 00:13:19;;;;;;;5.95;2.10;;;4.90;95.40;;;4.69;68.04;101428.25;4812123;29;20232;-72
2022/04/11 00:15:48;;;;;;;4.95;2.72;;;4.80;96.10;;;4.69;68.52;101430.94;4826361;29;20181;-71
2022/04/11 00:18:17;;;;;;;21.50;3.45;;;4.80;96.60;;;4.69;68.35;101430.94;4816697;29;20686;-72
2022/04/11 00:20:47;;;;;;;10.38;2.33;;;4.80;96.50;;;4.65;68.43;101423.31;4806572;29;20181;-71
2022/04/11 00:23:16;;;;;;;6.18;2.88;;;4.80;96.80;;;4.66;68.19;101431.22;4806151;29;20213;-71
2022/04/11 00:25:45;;;;;;;7.68;2.85;;;4.80;97.30;;;4.59;68.83;101435.50;4812715;29;20205;-69
2022/04/11 00:28:15;;;;;;;6.55;2.05;;;4.70;98.40;;;4.55;68.45;101433.28;4809628;29;20311;-71
2022/04/11 00:30:44;;;;;;;4.43;2.47;;;4.70;98.70;;;4.48;68.99;101438.38;4824093;29;20196;-70
2022/04/11 00:33:14;;;;;;;3.67;2.03;;;4.60;99.80;;;4.49;68.98;101436.56;4807710;29;20218;-71
2022/04/11 00:35:43;;;;;;;5.82;3.20;;;4.60;99.90;;;4.38;69.57;101433.06;4816544;29;20243;-72
2022/04/11 00:38:12;;;;;;;5.80;2.55;;;4.60;99.90;;;4.35;69.51;101432.53;4821479;29;20213;-71
2022/04/11 00:40:41;;;;;;;6.30;2.42;;;4.50;99.90;;;4.25;69.49;101431.75;4823306;29;20303;-71
2022/04/11 00:43:10;;;;;;;5.90;1.98;;;4.50;99.90;;;4.18;70.06;101430.63;4812768;29;20233;-72
2022/04/11 00:45:41;;;;;;;6.95;2.85;;;4.40;99.90;;;4.17;70.15;101431.63;4821467;29;20284;-72
2022/04/11 00:48:10;;;;;;;6.13;2.92;;;4.40;99.90;;;4.05;70.65;101430.97;4822059;29;20296;-71
2022/04/11 00:50:39;;;;;;;2.95;2.25;;;4.30;99.90;;;4.00;70.89;101435.94;4824076;29;20643;-70
2022/04/11 00:53:08;;;;;;;6.72;2.85;;;4.20;99.90;;;3.96;71.00;101431.88;4838346;29;20595;-72
2022/04/11 00:55:37;;;;;;;4.53;2.33;;;4.20;99.90;;;3.89;71.43;101436.94;4819497;29;20232;-71
2022/04/11 00:58:10;;;;;;;3.03;1.75;;;4.10;99.90;;;3.87;71.73;101446.13;4816970;29;20261;-71
2022/04/11 01:00:43;;;;;;;10.15;2.85;;;4.10;99.90;;;3.78;71.74;101441.63;4819356;29;20215;-71
2022/04/11 01:03:14;;;;;;;4.00;1.90;;;4.00;99.90;;;3.73;71.88;101444.72;4820740;29;20598;-70
2022/04/11 01:05:44;;;;;;;6.80;2.40;;;4.00;99.90;;;3.75;71.84;101444.59;4826519;29;20201;-71
2022/04/11 01:08:14;;;;;;;8.43;2.75;;;3.90;99.90;;;3.68;72.22;101448.84;4841330;29;20622;-71
2022/04/11 01:10:45;;;;;;;6.75;2.55;;;3.90;99.90;;;3.67;72.39;101439.97;4826782;29;20555;-71
2022/04/11 01:13:17;;;;;;;6.57;2.55;;;3.90;99.90;;;3.63;72.29;101449.25;4843649;29;20315;-71
2022/04/11 01:16:03;;;;;;;8.70;2.58;;;3.90;99.90;;;3.58;72.62;101442.69;4825095;29;20262;-71
2022/04/11 01:18:37;;;;;;;8.02;2.25;;;3.80;99.90;;;3.48;72.80;101454.25;4810665;29;20258;-71
2022/04/11 01:21:10;;;;;;;6.45;2.47;;;3.80;99.90;;;3.43;72.90;101456.50;4825929;29;20193;-73
2022/04/11 01:23:42;;;;;;;7.30;2.20;;;3.70;99.90;;;3.41;73.09;101452.25;4816989;29;20221;-71
2022/04/11 01:26:14;;;;;;;5.60;2.88;;;3.60;99.90;;;3.47;73.04;101451.69;4825259;29;20565;-70
2022/04/11 01:28:45;;;;;;;4.95;2.35;;;3.70;99.90;;;3.42;72.91;101453.97;4823038;29;20197;-71
2022/04/11 01:31:20;;;;;;;6.47;2.50;;;3.70;99.90;;;3.41;72.93;101454.94;4823035;29;20216;-72
2022/04/11 01:33:52;;;;;;;8.80;2.97;;;3.70;99.90;;;3.32;73.23;101453.13;4809694;29;20778;-71
2022/04/11 01:36:22;;;;;;;10.10;2.80;;;3.60;99.90;;;3.34;73.03;101456.50;4828942;29;20213;-71
2022/04/11 01:38:57;;;;;;;7.72;2.35;;;3.50;99.90;;;3.23;73.31;101452.13;4827368;29;20208;-72
2022/04/11 01:41:28;;;;;;;5.25;3.13;;;3.50;99.90;;;3.09;73.94;101457.06;4826847;29;20212;-68
2022/04/11 01:43:58;;;;;;;5.75;2.78;;;3.40;99.90;;;3.04;74.34;101460.16;4823819;29;20718;-71
2022/04/11 01:46:29;;;;;;;4.03;2.20;;;3.30;99.90;;;3.10;73.91;101446.22;4825611;29;20288;-72
2022/04/11 01:49:17;;;;;;;8.85;3.38;;;3.30;99.90;;;3.12;73.97;101448.75;4825044;29;20216;-71
2022/04/11 01:51:48;;;;;;;6.00;2.70;;;3.30;99.90;;;3.05;73.79;101446.63;4820546;29;20237;-71
2022/04/11 01:54:21;;;;;;;8.07;2.22;;;3.30;99.90;;;2.96;74.40;101447.47;4819962;29;20234;-71
2022/04/11 01:56:51;;;;;;;6.40;2.78;;;3.20;99.90;;;2.84;74.82;101453.94;4823350;29;20663;-71
2022/04/11 01:59:21;;;;;;;21.05;3.97;;;3.20;99.90;;;2.71;75.31;101442.66;4827837;29;20259;-72
2022/04/11 02:01:54;;;;;;;3.60;2.40;;;3.10;99.90;;;2.71;75.26;101442.66;4808127;29;20216;-70
2022/04/11 02:04:24;;;;;;;4.70;2.70;;;3.00;99.90;;;2.76;75.37;101451.09;4823500;29;20233;-72
2022/04/11 02:06:56;;;;;;;4.40;2.47;;;3.00;99.90;;;2.75;75.38;101441.41;4809118;29;20285;-70
2022/04/11 02:09:29;;;;;;;4.53;2.92;;;3.00;99.90;;;2.74;75.36;101437.03;4823989;29;20200;-71
2022/04/11 02:12:00;;;;;;;4.07;2.58;;;3.00;99.90;;;2.57;75.56;101446.56;4819680;29;20240;-72
2022/04/11 02:14:30;;;;;;;7.55;3.05;;;2.90;99.90;;;2.48;76.09;101452.72;4815054;29;20271;-71
2022/04/11 02:17:02;;;;;;;3.08;2.17;;;2.80;99.90;;;2.59;76.08;101446.44;4823153;29;20197;-70
2022/04/11 02:19:34;;;;;;;5.43;2.53;;;2.80;99.90;;;2.60;75.53;101445.47;4823587;29;20233;-71
2022/04/11 02:22:05;;;;;;;6.32;2.20;;;2.90;99.90;;;2.53;76.07;101449.66;4823250;29;20309;-71
2022/04/11 02:24:37;;;;;;;6.57;2.63;;;2.90;99.90;;;2.53;75.83;101444.31;4835684;29;20220;-72
2022/04/11 02:27:07;;;;;;;6.05;2.15;;;2.80;99.90;;;2.44;76.36;101450.47;4833559;29;20210;-71
2022/04/11 02:29:37;;;;;;;5.05;4.05;;;2.80;99.90;;;2.60;75.63;101450.81;4833947;29;20209;-73
2022/04/11 02:32:08;;;;;;;5.25;2.25;;;2.80;99.90;;;2.63;75.62;101450.53;4859420;29;20205;-73
2022/04/11 02:34:40;;;;;;;5.70;2.70;;;2.90;99.90;;;2.58;75.32;101447.41;4842601;29;20231;-73
2022/04/11 02:37:11;;;;;;;7.13;2.83;;;2.80;99.90;;;2.44;75.93;101443.31;4825827;29;20204;-71
2022/04/11 02:39:42;;;;;;;6.80;2.40;;;2.80;99.90;;;2.38;76.33;101451.00;4834229;29;20410;-71
2022/04/11 02:42:21;;;;;;;11.45;2.50;;;2.70;99.90;;;2.40;76.14;101438.38;4846322;29;20260;-70
2022/04/11 02:44:55;;;;;;;7.32;3.65;;;2.70;99.90;;;2.49;75.96;101433.06;4818615;29;20217;-71
2022/04/11 02:47:25;;;;;;;5.55;3.03;;;2.70;99.90;;;2.53;75.65;101433.63;4817899;29;20200;-70
2022/04/11 02:49:56;;;;;;;4.78;2.90;;;2.70;99.90;;;2.40;75.93;101435.72;4819285;29;20579;-71
2022/04/11 02:52:40;;;;;;;7.00;3.63;;;2.70;99.90;;;2.29;76.43;101430.47;4844554;29;20229;-71
2022/04/11 02:55:13;;;;;;;4.32;3.00;;;2.70;99.90;;;2.25;76.39;101435.25;4817104;29;20439;-69
2022/04/11 02:57:48;;;;;;;5.20;3.00;;;2.60;99.90;;;2.44;75.92;101429.09;4822818;29;20217;-71
2022/04/11 03:00:19;;;;;;;6.85;2.75;;;2.60;99.90;;;2.32;76.30;101441.75;4823380;29;20196;-70
2022/04/11 03:02:59;;;;;;;6.63;2.78;;;2.60;99.90;;;2.27;76.37;101441.31;4808138;29;20231;-71
2022/04/11 03:05:34;;;;;;;3.55;2.30;;;2.60;99.90;;;2.27;76.68;101437.78;4808357;29;20208;-70
2022/04/11 03:08:09;;;;;;;9.10;3.45;;;2.60;99.90;;;2.24;76.75;101432.69;4813131;29;20234;-73
2022/04/11 03:10:44;;;;;;;7.63;2.95;;;2.50;99.90;;;2.17;77.03;101449.28;4810268;29;20240;-71
2022/04/11 03:13:14;;;;;;;4.97;2.78;;;2.50;99.90;;;2.01;77.28;101437.38;4831691;29;20253;-69
2022/04/11 03:15:45;;;;;;;6.82;3.00;;;2.40;99.90;;;2.14;77.34;101433.50;4807428;29;20189;-70
2022/04/11 03:18:18;;;;;;;5.32;2.33;;;2.50;99.90;;;2.07;77.55;101445.72;4818556;29;20266;-71
2022/04/11 03:20:51;;;;;;;8.98;2.88;;;2.40;99.90;;;2.09;77.32;101449.09;4821142;29;20200;-70
2022/04/11 03:23:24;;;;;;;6.22;3.15;;;2.40;99.90;;;2.03;77.54;101436.25;4821490;29;20263;-71
2022/04/11 03:25:59;;;;;;;7.90;2.80;;;2.40;99.90;;;1.94;77.90;101442.41;4807460;29;20574;-70
2022/04/11 03:28:54;;;;;;;3.53;2.35;;;2.40;99.90;;;1.80;78.28;101440.09;4806750;29;20250;-70
2022/04/11 03:31:26;;;;;;;5.53;2.40;;;2.30;99.90;;;1.84;78.26;101441.50;4808931;29;20642;-72
2022/04/11 03:33:59;;;;;;;8.98;3.25;;;2.30;99.90;;;1.95;78.16;101443.25;4824514;29;20316;-72
2022/04/11 03:36:30;;;;;;;10.55;2.80;;;2.30;99.90;;;1.82;78.43;101442.63;4824418;29;20201;-70
2022/04/11 03:39:02;;;;;;;6.88;2.65;;;2.20;99.90;;;1.68;78.54;101441.16;4820099;29;20205;-71
2022/04/11 03:41:38;;;;;;;12.40;3.47;;;2.10;99.90;;;1.68;78.72;101449.16;4838097;29;20252;-69
2022/04/11 03:44:15;;;;;;;8.10;3.70;;;2.10;99.90;;;1.66;78.91;101443.09;4806587;29;20248;-71
2022/04/11 03:46:48;;;;;;;9.18;3.55;;;2.10;99.90;;;1.65;79.29;101444.91;4807609;29;20185;-71
2022/04/11 03:49:25;;;;;;;8.85;3.42;;;2.10;99.90;;;1.56;79.57;101453.72;4805992;29;20209;-70
2022/04/11 03:52:01;;;;;;;10.20;3.30;;;2.00;99.90;;;1.72;79.37;101448.75;4820785;29;20324;-71
2022/04/11 03:54:33;;;;;;;6.80;3.60;;;2.00;99.90;;;1.67;79.33;101450.97;4827180;29;20179;-71
2022/04/11 03:57:09;;;;;;;10.45;3.40;;;2.00;99.90;;;1.56;79.70;101447.53;4823185;29;20240;-71
2022/04/11 03:59:39;;;;;;;9.48;4.63;;;2.00;99.90;;;1.75;79.36;101452.97;4824919;29;20177;-70
2022/04/11 04:02:11;;;;;;;10.00;4.30;;;2.10;99.90;;;1.76;79.14;101446.66;4836713;29;20260;-70
2022/04/11 04:04:43;;;;;;;6.68;3.40;;;2.10;99.90;;;1.55;79.46;101456.53;4816108;29;20228;-69
2022/04/11 04:07:15;;;;;;;15.20;4.25;;;2.00;99.90;;;1.69;79.26;101450.84;4839464;29;20199;-72
2022/04/11 04:09:48;;;;;;;10.30;3.53;;;2.00;99.90;;;1.62;79.29;101447.84;4821452;29;20209;-71
2022/04/11 04:12:23;;;;;;;6.35;3.70;;;2.00;99.90;;;1.57;79.65;101454.56;4808405;29;20277;-70
2022/04/11 04:15:03;;;;;;;7.00;3.20;;;2.00;99.90;;;1.69;79.64;101454.34;4808187;29;20192;-71
2022/04/11 04:17:35;;;;;;;11.98;4.55;;;2.00;99.90;;;1.76;79.14;101457.34;4821979;29;20320;-71
2022/04/11 04:20:10;;;;;;;11.75;4.68;;;2.10;99.90;;;1.79;79.25;101454.44;4809268;29;20192;-69
2022/04/11 04:22:40;;;;;;;7.35;3.90;;;2.10;99.90;;;1.99;78.81;101460.69;4814813;29;20240;-71
2022/04/11 04:25:11;;;;;;;7.40;4.53;;;2.20;99.90;;;1.92;78.81;101464.88;4814183;29;20718;-71
2022/04/11 04:27:45;;;;;;;8.10;4.57;;;2.20;99.90;;;1.83;79.34;101461.19;4808518;29;20262;-70
2022/04/11 04:30:17;;;;;;;11.80;4.80;;;2.20;99.90;;;1.72;79.58;101471.94;4811803;29;20200;-72
2022/04/11 04:32:48;;;;;;;8.38;4.57;;;2.10;99.90;;;1.76;79.63;101460.00;4812099;29;20222;-70
2022/04/11 04:35:20;;;;;;;4.47;3.83;;;2.10;99.90;;;1.78;79.59;101459.88;4813107;29;20189;-70
2022/04/11 04:37:54;;;;;;;6.60;4.30;;;2.10;99.90;;;1.80;79.66;101464.09;4820098;29;20268;-71
2022/04/11 04:40:26;;;;;;;11.18;3.80;;;2.10;99.90;;;1.84;79.78;101460.19;4839617;29;20236;-70
2022/04/11 04:43:04;;;;;;;7.22;5.25;;;2.10;99.90;;;2.01;79.61;101469.41;4845408;29;20229;-70
2022/04/11 04:45:34;;;;;;;6.55;5.90;;;2.20;99.90;;;2.86;79.80;101468.00;4812820;29;20221;-70
2022/04/11 04:48:20;;;;;;;11.07;5.50;;;2.40;99.90;;;4.35;72.45;101459.34;4796527;29;20209;-70
2022/04/11 04:50:52;;;;;;;8.20;4.65;;;3.10;99.90;;;4.78;69.71;101467.56;4812338;29;20193;-71
2022/04/11 04:53:23;;;;;;;7.07;4.25;;;3.60;99.90;;;5.04;68.81;101466.81;4810301;29;20241;-71
2022/04/11 04:56:00;;;;;;;15.43;4.10;;;3.90;99.90;;;5.52;67.04;101471.75;4797016;29;20288;-70
2022/04/11 04:58:39;;;;;;;6.70;4.10;;;4.30;99.90;;;6.27;64.53;101473.84;4809848;29;20219;-73
2022/04/11 05:01:10;;;;;;;10.38;4.00;;;4.70;99.90;;;6.38;63.41;101476.25;4808873;29;20282;-71
2022/04/11 05:03:40;;;;;;;7.70;3.53;;;5.10;99.90;;;6.00;64.18;101471.34;4814435;29;20231;-71
2022/04/11 05:06:13;;;;;;;11.38;3.65;;;5.20;99.90;;;5.25;66.29;101470.03;4810102;29;20206;-72
2022/04/11 05:08:44;;;;;;;21.63;4.95;;;5.00;99.90;;;5.56;65.98;101470.47;4841255;29;20211;-71
2022/04/11 05:11:19;;;;;;;10.88;3.50;;;4.90;99.90;;;6.26;63.64;101474.81;4841826;29;20639;-71
2022/04/11 05:13:52;;;;;;;7.82;3.55;;;5.00;99.90;;;5.45;65.60;101476.94;5126224;24;20670;-67
2022/04/11 05:16:26;;;;;;;8.20;4.43;;;5.00;99.90;;;4.68;67.99;101477.50;4815187;29;20205;-65
2022/04/11 05:18:56;;;;;;;10.38;4.93;;;4.60;99.90;;;4.10;70.34;101484.94;4794639;29;20683;-66
2022/04/11 05:21:25;;;;;;;8.73;4.10;;;4.30;99.90;;;3.83;71.71;101479.50;4789614;29;20699;-67
2022/04/11 05:23:54;;;;;;;6.22;4.38;;;4.10;99.90;;;3.73;72.12;101490.25;4786128;29;20309;-67
2022/04/11 05:26:23;;;;;;;7.00;4.13;;;4.00;99.90;;;3.58;73.00;101485.50;4772662;29;20735;-66
2022/04/11 05:28:55;;;;;;;7.25;3.78;;;3.80;99.90;;;3.55;72.97;101494.63;4771479;30;20203;-68
2022/04/11 05:31:24;;;;;;;11.38;5.35;;;3.70;99.90;;;3.66;73.02;101496.31;4786046;30;20225;-68
2022/04/11 05:33:54;;;;;;;7.82;4.20;;;3.80;99.90;;;3.52;73.14;101488.72;4786140;29;20608;-68
2022/04/11 05:36:23;;;;;;;11.23;6.20;;;3.70;99.90;;;3.58;73.21;101494.38;4772351;30;20199;-66
2022/04/11 05:38:52;;;;;;;8.38;4.57;;;3.70;99.90;;;3.66;73.44;101499.84;4785915;29;20207;-67
2022/04/11 05:41:21;;;;;;;6.90;4.68;;;3.70;99.90;;;3.87;72.84;101499.69;4785878;30;20206;-67
2022/04/11 05:43:54;;;;;;;12.32;4.85;;;3.90;99.90;;;3.78;72.24;101501.34;4785720;29;20257;-66
2022/04/11 05:46:32;;;;;;;6.47;4.20;;;3.80;99.90;;;4.02;72.08;101500.88;4785904;30;20237;-67
2022/04/11 05:49:08;;;;;;;8.35;5.30;;;4.00;99.90;;;4.12;71.69;101500.84;4770536;30;20680;-66
2022/04/11 05:51:37;;;;;;;10.82;4.32;;;4.20;99.90;;;4.22;71.22;101497.16;4785981;29;20715;-67
2022/04/11 05:54:07;;;;;;;10.60;3.85;;;4.30;99.90;;;4.33;70.76;101493.47;4785644;29;20635;-68
2022/04/11 05:56:37;;;;;;;10.77;3.90;;;4.40;99.90;;;4.46;69.82;101499.31;4785845;29;20199;-68
2022/04/11 05:59:12;;;;;;;6.40;4.30;;;4.50;99.90;;;4.45;69.98;101486.94;4785511;29;20210;-67
2022/04/11 06:01:41;;;;;;;12.20;5.10;;;4.50;99.90;;;4.52;69.94;101493.38;4790473;29;20297;-67
2022/04/11 06:04:11;;;;;;;8.60;5.00;;;4.60;99.90;;;4.59;69.03;101501.69;4771853;30;20242;-66
2022/04/11 06:06:40;;;;;;;8.43;4.55;;;4.60;99.90;;;4.85;68.94;101508.00;4792211;29;20269;-65
2022/04/11 06:09:10;;;;;;;6.72;4.30;;;4.80;99.90;;;4.82;67.80;101503.81;4787683;30;20231;-66
2022/04/11 06:11:44;;;;;;;6.70;4.60;;;4.90;99.90;;;4.97;67.98;101508.66;4786047;29;20207;-67
2022/04/11 06:14:15;;;;;;;5.88;4.20;;;5.00;99.90;;;5.10;67.01;101514.50;4770398;30;20238;-68
2022/04/11 06:16:45;;;;;;;5.53;3.78;;;5.10;98.30;;;5.16;66.60;101511.22;4785558;30;20206;-65
2022/04/11 06:19:15;;;;;;;5.70;4.03;;;5.20;96.40;;;5.23;66.32;101510.44;4785253;29;20640;-67
2022/04/11 06:21:44;;;;;;;6.88;3.75;;;5.30;94.80;;;5.17;65.98;101516.44;4770525;30;20267;-67
2022/04/11 06:24:13;;;;;;;7.65;4.22;;;5.30;91.90;;;5.38;65.07;101516.09;4785084;29;20231;-69
2022/04/11 06:26:43;;;;;;;7.40;3.33;;;5.40;90.50;;;5.44;64.00;101518.19;4786098;30;20248;-65
2022/04/11 06:29:13;;;;;;;9.18;3.65;;;5.50;78.20;;;5.51;63.12;101519.28;4784864;30;20297;-68
2022/04/11 06:31:43;;;;;;;9.90;3.95;;;5.60;71.50;;;5.67;63.41;101511.34;4785028;30;20207;-66
2022/04/11 06:34:25;;;;;;;6.20;2.47;;;5.70;73.20;;;5.82;62.21;101510.78;4785114;30;20736;-67
2022/04/11 06:36:54;;;;;;;4.22;3.50;;;5.80;60.70;;;5.85;62.27;101516.69;4784797;29;20207;-65
2022/04/11 06:39:23;;;;;;;5.00;2.83;;;5.90;57.60;;;5.88;62.11;101515.56;4785107;29;20222;-67
2022/04/11 06:41:56;;;;;;;4.88;3.13;;;5.90;55.70;;;6.09;61.96;101524.13;4779212;30;20221;-67
2022/04/11 06:44:27;;;;;;;6.43;3.00;;;6.10;56.00;;;6.09;61.23;101524.13;4784497;29;20615;-69
2022/04/11 06:47:00;;;;;;;7.13;2.55;;;6.20;50.40;;;5.95;61.00;101519.31;4769488;30;20637;-69
2022/04/11 06:49:29;;;;;;;6.45;3.42;;;6.10;45.70;;;6.01;60.89;101527.56;4784713;30;20600;-69
2022/04/11 06:52:00;;;;;;;5.13;3.40;;;6.10;43.30;;;6.10;60.29;101518.56;4784588;30;20251;-67
2022/04/11 06:54:30;;;;;;;8.07;2.63;;;6.20;41.70;;;6.12;59.97;101523.78;4770746;30;20283;-66
2022/04/11 06:57:01;;;;;;;4.82;2.15;;;6.20;39.40;;;6.14;58.49;101516.44;4770779;30;20213;-67
2022/04/11 06:59:30;;;;;;;4.63;2.97;;;6.20;32.60;;;6.29;58.85;101525.59;4784009;29;20560;-67
2022/04/11 07:02:02;;;;;;;5.90;2.78;;;6.40;34.70;;;6.40;59.34;101528.00;4774883;30;20199;-67
2022/04/11 07:04:31;;;;;;;5.68;3.00;;;6.40;34.80;;;6.53;58.57;101528.38;4784093;30;20707;-67
2022/04/11 07:07:01;;;;;;;4.57;3.03;;;6.50;31.60;;;6.72;58.00;101526.47;4777768;29;20222;-68
2022/04/11 07:09:37;;;;;;;7.55;3.03;;;6.70;30.90;;;6.87;57.51;101532.94;4772691;30;20211;-67
2022/04/11 07:12:09;;;;;;;4.85;2.83;;;6.80;29.00;;;6.94;57.44;101532.09;4777099;30;20234;-66
2022/04/11 07:14:38;;;;;;;4.78;2.72;;;6.90;28.00;;;6.89;57.04;101530.91;4777212;29;20222;-68
2022/04/11 07:17:09;;;;;;;4.72;2.85;;;7.00;25.40;;;6.98;56.63;101532.63;4770841;30;20700;-67
2022/04/11 07:19:39;;;;;;;3.90;2.67;;;7.00;24.50;;;6.98;55.25;101540.69;4770300;30;20271;-67
2022/04/11 07:22:10;;;;;;;5.53;2.13;;;7.10;21.30;;;7.01;54.08;101535.00;4770426;30;20255;-67
2022/04/11 07:24:41;;;;;;;6.10;3.50;;;7.10;18.80;;;7.09;54.22;101540.41;4770585;30;20194;-66
2022/04/11 07:27:10;;;;;;;7.45;3.05;;;7.20;17.70;;;6.99;53.56;101535.16;4772615;30;20233;-69
2022/04/11 07:29:39;;;;;;;3.45;2.08;;;7.10;16.30;;;7.05;54.29;101533.66;4788608;29;20203;-66
2022/04/11 07:32:10;;;;;;;6.30;2.58;;;7.10;17.00;;;7.29;53.97;101535.56;4774988;29;20233;-64
2022/04/11 07:34:40;;;;;;;4.18;2.20;;;7.30;16.50;;;7.33;53.95;101542.31;4781901;30;20277;-65
2022/04/11 07:37:11;;;;;;;8.02;1.85;;;7.30;16.40;;;7.49;53.55;101536.09;4777492;30;20202;-67
2022/04/11 07:39:41;;;;;;;2.35;1.80;;;7.40;16.30;;;7.39;52.67;101541.66;4776428;30;20229;-67
2022/04/11 07:42:10;;;;;;;2.90;2.03;;;7.50;13.70;;;7.48;52.75;101540.66;4774502;30;20272;-67
2022/04/11 07:44:39;;;;;;;4.63;1.92;;;7.50;13.90;;;7.52;52.71;101536.59;4775548;30;20202;-68
2022/04/11 07:47:10;;;;;;;6.28;2.58;;;7.60;13.90;;;7.80;52.18;101534.41;4770558;29;20296;-66
2022/04/11 07:49:40;;;;;;;6.93;2.47;;;7.70;13.60;;;8.10;52.82;101533.75;4790960;29;20585;-68
2022/04/11 07:52:09;;;;;;;4.57;2.20;;;7.90;14.40;;;8.33;51.67;101538.47;4780885;29;20204;-66
2022/04/11 07:54:38;;;;;;;3.85;2.47;;;8.20;12.80;;;8.35;50.80;101529.19;4776103;29;20865;-65
2022/04/11 07:57:09;;;;;;;5.70;1.88;;;8.40;11.00;;;8.17;50.78;101542.00;4777010;30;20210;-67
2022/04/11 07:59:44;;;;;;;3.20;1.75;;;8.30;9.80;;;8.03;51.01;101526.50;4767028;30;20199;-66
2022/04/11 08:02:14;;;;;;;3.35;2.15;;;8.20;9.90;;;8.06;51.29;101529.69;4777957;29;20258;-66
2022/04/11 08:04:43;;;;;;;5.15;2.60;;;8.10;10.50;;;8.01;50.19;101537.47;4774107;30;20218;-67
2022/04/11 08:07:13;;;;;;;4.25;1.80;;;8.10;9.00;;;8.05;50.79;101537.94;4774839;30;20700;-66
2022/04/11 08:09:43;;;;;;;4.32;2.72;;;8.10;9.60;;;8.21;50.61;101540.63;4771683;30;20649;-67
2022/04/11 08:12:13;;;;;;;3.50;2.45;;;8.20;9.50;;;8.39;49.67;101537.75;4773104;30;20206;-66
2022/04/11 08:14:42;;;;;;;2.60;1.75;;;8.40;8.50;;;8.35;49.30;101528.34;4769952;30;20246;-66
2022/04/11 08:17:14;;;;;;;3.60;1.75;;;8.40;7.30;;;8.34;49.32;101535.56;4769640;30;20665;-66
2022/04/11 08:19:43;;;;;;;5.75;2.17;;;8.40;6.80;;;8.25;48.56;101534.72;4769742;30;20206;-66
2022/04/11 08:22:13;;;;;;;5.13;2.30;;;8.30;5.50;;;8.37;48.83;101542.50;4772729;30;20203;-67
2022/04/11 08:24:44;;;;;;;2.85;1.95;;;8.40;5.90;;;8.72;49.19;101536.63;4775008;30;20226;-67
2022/04/11 08:27:43;;;;;;;2.33;1.60;;;8.60;6.60;;;9.18;47.93;101542.16;4772546;30;20286;-66
2022/04/11 08:30:14;;;;;;;2.58;1.20;;;9.00;5.50;;;8.95;45.55;101548.38;4773332;30;20604;-67
2022/04/11 08:32:48;;;;;;;4.82;1.55;;;9.00;1.70;;;8.59;45.92;101545.28;4772326;30;20763;-67
2022/04/11 08:35:23;;;;;;;3.17;2.22;;;8.80;1.00;;;8.79;46.59;101543.03;4771888;30;20256;-66
2022/04/11 08:37:53;;;;;;;5.22;1.63;;;8.80;1.50;;;8.87;46.10;101540.28;4771360;30;20281;-66
2022/04/11 08:40:22;;;;;;;3.10;1.45;;;8.90;1.20;;;9.07;44.79;101541.53;4771974;30;20210;-66
2022/04/11 08:42:52;;;;;;;5.53;1.40;;;9.00;1.00;;;9.28;44.28;101534.69;4772637;30;20231;-67
2022/04/11 08:45:23;;;;;;;5.65;1.50;;;9.20;1.00;;;9.07;43.45;101543.41;4776096;30;20209;-67
2022/04/11 08:47:56;;;;;;;4.43;1.60;;;9.10;1.00;;;8.84;44.46;101556.84;4769554;30;20222;-68
2022/04/11 08:50:26;;;;;;;8.43;2.08;;;9.00;1.00;;;8.77;44.81;101545.06;4768408;30;20203;-68
2022/04/11 08:52:57;;;;;;;3.58;1.70;;;8.90;1.00;;;8.97;44.91;101535.53;4771272;30;20299;-67
2022/04/11 08:55:26;;;;;;;2.85;2.00;;;8.90;1.00;;;9.14;44.34;101531.75;4768331;30;20206;-67
2022/04/11 08:58:00;;;;;;;3.80;1.40;;;9.10;1.00;;;9.13;43.98;101546.25;4768655;30;20202;-67
2022/04/11 09:00:31;;;;;;;3.83;1.70;;;9.10;1.00;;;9.31;44.06;101534.31;4768420;30;20195;-68
2022/04/11 09:03:01;;;;;;;3.10;1.80;;;9.20;1.00;;;9.59;44.13;101530.06;4768866;30;20227;-67
2022/04/11 09:05:31;;;;;;;3.53;1.38;;;9.40;1.00;;;9.60;43.31;101532.59;4768049;30;20622;-69
2022/04/11 09:08:01;;;;;;;3.55;1.15;;;9.50;1.00;;;9.62;42.66;101532.44;4768438;30;20693;-67
2022/04/11 09:10:37;;;;;;;3.70;2.20;;;9.60;1.00;;;9.71;43.62;101528.63;4769886;30;20199;-67
2022/04/11 09:13:08;;;;;;;3.58;2.42;;;9.60;1.00;;;9.97;42.65;101531.78;4771312;30;20232;-68
2022/04/11 09:15:45;;;;;;;3.67;1.20;;;9.80;1.00;;;9.78;42.35;101523.34;4775629;30;20642;-69
2022/04/11 09:18:15;;;;;;;4.32;1.40;;;9.80;1.00;;;9.94;42.75;101518.63;4771000;30;20205;-69
2022/04/11 09:20:44;;;;;;;6.37;3.43;;;9.80;1.00;;;10.20;42.37;101529.06;4769569;30;20263;-67
2022/04/11 09:23:22;;;;;;;2.97;1.70;;;10.00;1.00;;;10.42;40.78;101519.19;4768013;30;20464;-67
2022/04/11 09:25:51;;;;;;;3.30;1.37;;;10.20;1.00;;;10.66;40.09;101524.31;4771521;30;20509;-68
2022/04/11 09:28:20;;;;;;;4.28;3.83;;;10.50;1.00;;;10.27;41.13;101512.94;4773707;29;20455;-68
2022/04/11 09:30:49;;;;;;;5.03;1.73;;;10.30;1.00;;;9.79;41.37;101514.19;4771096;30;20210;-68
2022/04/11 09:33:19;;;;;;;3.15;1.85;;;10.00;1.00;;;10.09;42.02;101512.41;4771001;30;20468;-67
2022/04/11 09:35:49;;;;;;;3.70;1.70;;;10.00;1.00;;;10.56;40.40;101517.50;4771219;30;20233;-69
2022/04/11 09:38:19;;;;;;;3.70;1.43;;;10.30;1.00;;;10.74;39.32;101515.28;4771604;29;21012;-70
2022/04/11 09:40:50;;;;;;;3.53;1.70;;;10.40;1.00;;;10.79;38.94;101512.84;4771857;30;20966;-69
2022/04/11 09:43:27;;;;;;;2.13;1.50;;;10.70;1.00;;;10.73;39.16;101519.00;4774825;29;21019;-69
2022/04/11 09:45:57;;;;;;;3.20;2.00;;;10.70;1.00;;;10.84;38.41;101505.81;4771983;30;20509;-68
2022/04/11 09:48:30;;;;;;;4.03;1.63;;;10.80;1.00;;;11.00;38.93;101512.03;4771792;30;20508;-68
2022/04/11 09:51:00;;;;;;;2.70;1.60;;;10.80;1.00;;;11.07;38.15;101507.56;4775828;30;20530;-69
2022/04/11 09:53:33;;;;;;;3.13;1.80;;;10.90;1.00;;;10.82;38.30;101497.06;4771087;30;20465;-69
2022/04/11 09:56:04;;;;;;;3.23;1.50;;;10.80;1.00;;;10.80;38.62;101498.25;4760559;30;20815;-71
2022/04/11 09:58:36;;;;;;;2.97;1.60;;;10.80;1.00;;;11.18;38.15;101512.50;4764456;30;20834;-69
2022/04/11 10:01:07;;;;;;;2.60;1.60;;;10.90;1.00;;;11.76;37.35;101506.84;4771249;30;20444;-69
2022/04/11 10:03:41;;;;;;;4.00;1.70;;;11.30;1.00;;;12.01;36.32;101517.28;4784649;30;20473;-68
2022/04/11 10:06:14;;;;;;;3.33;1.33;;;11.60;1.00;;;11.66;36.12;101511.75;4771100;30;20431;-68
2022/04/11 10:08:44;;;;;;;2.77;1.93;;;11.60;1.00;;;11.76;36.27;101501.41;4774900;30;20491;-68
2022/04/11 10:11:18;;;;;;;2.27;1.30;;;11.60;1.00;;;11.64;36.65;101502.97;4771170;30;20854;-68
2022/04/11 10:13:49;;;;;;;2.60;1.53;;;11.50;1.00;;;11.75;36.98;101499.78;4776166;29;20551;-68
2022/04/11 10:16:20;;;;;;;2.93;1.90;;;11.60;1.00;;;11.79;36.47;101496.66;4777856;29;20912;-69
2022/04/11 10:18:50;;;;;;;3.83;2.23;;;11.70;1.00;;;11.57;37.06;101495.81;4771204;30;20411;-68
2022/04/11 10:21:19;;;;;;;5.93;2.17;;;11.60;1.00;;;11.19;37.41;101492.47;4775664;30;20447;-69
2022/04/11 10:24:05;;;;;;;3.20;1.67;;;11.20;1.00;;;11.49;36.51;101499.47;4770716;30;20469;-67
2022/04/11 10:26:45;;;;;;;2.93;2.27;;;11.40;1.00;;;10.95;36.20;101490.13;4770775;30;20451;-67
2022/04/11 10:29:36;;;;;;;4.03;1.90;;;11.20;1.00;;;10.71;36.93;101486.72;4770889;30;20492;-69
2022/04/11 10:32:11;;;;;;;1.77;1.40;;;10.90;1.00;;;10.93;36.21;101490.31;4772197;30;20889;-69
2022/04/11 10:34:55;;;;;;;3.00;1.77;;;11.00;1.00;;;11.53;36.49;101484.50;4769518;30;20764;-69
2022/04/11 10:37:27;;;;;;;5.70;1.87;;;11.20;1.00;;;11.73;36.02;101482.84;4772869;30;20411;-69
2022/04/11 10:40:29;;;;;;;3.20;2.00;;;11.50;1.00;;;12.03;35.31;101488.09;4770565;30;20427;-69
2022/04/11 10:43:16;;;;;;;3.47;1.53;;;11.80;1.00;;;12.04;35.04;101482.47;4769732;30;20484;-69
2022/04/11 10:45:57;;;;;;;2.70;1.10;;;11.90;1.00;;;12.42;35.66;101485.66;4770228;30;20433;-67